sensor_id;sensor_type;location;lat;lon;timestamp;P1;durP1;ratioP1;P2;durP2;ratioP2
14096;SDS011;7125;48.106;11.544;2023-12-20T00:02:14;2.00;;;1.30;;
14096;SDS011;7125;48.106;11.544;2023-12-20T00:04:41;2.47;;;1.70;;
14096;SDS011;7125;48.106;11.544;2023-12-20T00:07:08;2.13;;;1.70;;
14096;SDS011;7125;48.106;11.544;2023-12-20T00:09:36;2.30;;;1.90;;
14096;SDS011;7125;48.106;11.544;2023-12-20T00:12:05;2.57;;;1.83;;
14096;SDS011;7125;48.106;11.544;2023-12-20T00:14:32;2.57;;;2.37;;
14096;SDS011;7125;48.106;11.544;2023-12-20T00:16:59;1.77;;;1.43;;
14096;SDS011;7125;48.106;11.544;2023-12-20T00:19:26;2.27;;;1.50;;
14096;SDS011;7125;48.106;11.544;2023-12-20T00:21:53;4.00;;;1.50;;
14096;SDS011;7125;48.106;11.544;2023-12-20T00:24:20;3.37;;;1.90;;
14096;SDS011;7125;48.106;11.544;2023-12-20T00:26:48;1.60;;;1.50;;
14096;SDS011;7125;48.106;11.544;2023-12-20T00:29:16;1.27;;;1.17;;
14096;SDS011;7125;48.106;11.544;2023-12-20T00:31:43;1.90;;;1.40;;
14096;SDS011;7125;48.106;11.544;2023-12-20T00:34:10;2.10;;;1.90;;
14096;SDS011;7125;48.106;11.544;2023-12-20T00:36:37;2.93;;;1.03;;
14096;SDS011;7125;48.106;11.544;2023-12-20T00:39:04;1.50;;;0.90;;
14096;SDS011;7125;48.106;11.544;2023-12-20T00:41:32;1.67;;;0.97;;
14096;SDS011;7125;48.106;11.544;2023-12-20T00:43:59;1.20;;;1.13;;
14096;SDS011;7125;48.106;11.544;2023-12-20T00:46:27;1.43;;;1.30;;
14096;SDS011;7125;48.106;11.544;2023-12-20T00:48:54;0.80;;;0.77;;
14096;SDS011;7125;48.106;11.544;2023-12-20T00:51:21;3.67;;;1.20;;
14096;SDS011;7125;48.106;11.544;2023-12-20T00:53:49;2.10;;;1.20;;
14096;SDS011;7125;48.106;11.544;2023-12-20T00:56:20;1.03;;;0.93;;
14096;SDS011;7125;48.106;11.544;2023-12-20T00:58:47;2.27;;;0.87;;
14096;SDS011;7125;48.106;11.544;2023-12-20T01:01:14;1.33;;;0.90;;
14096;SDS011;7125;48.106;11.544;2023-12-20T01:03:43;1.93;;;1.03;;
14096;SDS011;7125;48.106;11.544;2023-12-20T01:06:11;1.43;;;1.03;;
14096;SDS011;7125;48.106;11.544;2023-12-20T01:08:38;0.87;;;0.80;;
14096;SDS011;7125;48.106;11.544;2023-12-20T01:11:05;1.80;;;1.10;;
14096;SDS011;7125;48.106;11.544;2023-12-20T01:13:32;1.07;;;0.97;;
14096;SDS011;7125;48.106;11.544;2023-12-20T01:16:00;1.40;;;0.90;;
14096;SDS011;7125;48.106;11.544;2023-12-20T01:18:27;2.60;;;1.10;;
14096;SDS011;7125;48.106;11.544;2023-12-20T01:20:56;1.10;;;0.93;;
14096;SDS011;7125;48.106;11.544;2023-12-20T01:23:28;1.97;;;1.07;;
14096;SDS011;7125;48.106;11.544;2023-12-20T01:25:55;0.90;;;0.77;;
14096;SDS011;7125;48.106;11.544;2023-12-20T01:28:24;0.83;;;0.83;;
14096;SDS011;7125;48.106;11.544;2023-12-20T01:30:52;1.40;;;1.10;;
14096;SDS011;7125;48.106;11.544;2023-12-20T01:33:19;1.50;;;1.10;;
14096;SDS011;7125;48.106;11.544;2023-12-20T01:35:46;1.50;;;1.00;;
14096;SDS011;7125;48.106;11.544;2023-12-20T01:38:15;1.57;;;1.27;;
14096;SDS011;7125;48.106;11.544;2023-12-20T01:40:43;1.47;;;1.30;;
14096;SDS011;7125;48.106;11.544;2023-12-20T01:43:10;1.43;;;0.90;;
14096;SDS011;7125;48.106;11.544;2023-12-20T01:45:38;0.90;;;0.60;;
14096;SDS011;7125;48.106;11.544;2023-12-20T01:48:05;2.10;;;1.00;;
14096;SDS011;7125;48.106;11.544;2023-12-20T01:50:33;1.20;;;1.07;;
14096;SDS011;7125;48.106;11.544;2023-12-20T01:53:02;0.70;;;0.47;;
14096;SDS011;7125;48.106;11.544;2023-12-20T01:55:34;2.97;;;1.13;;
14096;SDS011;7125;48.106;11.544;2023-12-20T01:58:05;0.87;;;0.57;;
14096;SDS011;7125;48.106;11.544;2023-12-20T02:00:33;0.83;;;0.77;;
14096;SDS011;7125;48.106;11.544;2023-12-20T02:03:01;0.77;;;0.77;;
14096;SDS011;7125;48.106;11.544;2023-12-20T02:05:28;0.57;;;0.50;;
14096;SDS011;7125;48.106;11.544;2023-12-20T02:07:56;1.57;;;0.90;;
14096;SDS011;7125;48.106;11.544;2023-12-20T02:10:23;1.13;;;0.80;;
14096;SDS011;7125;48.106;11.544;2023-12-20T02:12:53;0.83;;;0.50;;
14096;SDS011;7125;48.106;11.544;2023-12-20T02:15:20;0.60;;;0.47;;
14096;SDS011;7125;48.106;11.544;2023-12-20T02:17:48;0.67;;;0.67;;
14096;SDS011;7125;48.106;11.544;2023-12-20T02:20:16;1.03;;;0.87;;
14096;SDS011;7125;48.106;11.544;2023-12-20T02:22:44;0.70;;;0.63;;
14096;SDS011;7125;48.106;11.544;2023-12-20T02:25:11;0.97;;;0.63;;
14096;SDS011;7125;48.106;11.544;2023-12-20T02:27:38;0.77;;;0.50;;
14096;SDS011;7125;48.106;11.544;2023-12-20T02:30:06;0.80;;;0.70;;
14096;SDS011;7125;48.106;11.544;2023-12-20T02:32:33;0.83;;;0.50;;
14096;SDS011;7125;48.106;11.544;2023-12-20T02:35:00;1.17;;;0.47;;
14096;SDS011;7125;48.106;11.544;2023-12-20T02:37:28;1.43;;;0.50;;
14096;SDS011;7125;48.106;11.544;2023-12-20T02:39:56;0.47;;;0.30;;
14096;SDS011;7125;48.106;11.544;2023-12-20T02:42:23;0.40;;;0.33;;
14096;SDS011;7125;48.106;11.544;2023-12-20T02:44:50;0.80;;;0.40;;
14096;SDS011;7125;48.106;11.544;2023-12-20T02:47:17;0.40;;;0.30;;
14096;SDS011;7125;48.106;11.544;2023-12-20T02:49:44;0.57;;;0.40;;
14096;SDS011;7125;48.106;11.544;2023-12-20T02:52:11;0.50;;;0.40;;
14096;SDS011;7125;48.106;11.544;2023-12-20T02:54:39;0.67;;;0.47;;
14096;SDS011;7125;48.106;11.544;2023-12-20T02:57:07;1.03;;;0.40;;
14096;SDS011;7125;48.106;11.544;2023-12-20T02:59:35;1.40;;;0.57;;
14096;SDS011;7125;48.106;11.544;2023-12-20T03:02:02;1.00;;;0.63;;
14096;SDS011;7125;48.106;11.544;2023-12-20T03:04:29;0.40;;;0.37;;
14096;SDS011;7125;48.106;11.544;2023-12-20T03:06:56;0.40;;;0.20;;
14096;SDS011;7125;48.106;11.544;2023-12-20T03:09:23;2.17;;;0.40;;
14096;SDS011;7125;48.106;11.544;2023-12-20T03:11:51;0.47;;;0.40;;
14096;SDS011;7125;48.106;11.544;2023-12-20T03:14:19;0.33;;;0.33;;
14096;SDS011;7125;48.106;11.544;2023-12-20T03:16:46;1.17;;;0.30;;
14096;SDS011;7125;48.106;11.544;2023-12-20T03:19:15;0.57;;;0.20;;
14096;SDS011;7125;48.106;11.544;2023-12-20T03:21:44;0.40;;;0.37;;
14096;SDS011;7125;48.106;11.544;2023-12-20T03:24:12;0.70;;;0.50;;
14096;SDS011;7125;48.106;11.544;2023-12-20T03:26:39;0.37;;;0.37;;
14096;SDS011;7125;48.106;11.544;2023-12-20T03:29:06;0.83;;;0.53;;
14096;SDS011;7125;48.106;11.544;2023-12-20T03:31:35;0.27;;;0.23;;
14096;SDS011;7125;48.106;11.544;2023-12-20T03:34:02;0.20;;;0.20;;
14096;SDS011;7125;48.106;11.544;2023-12-20T03:36:29;0.53;;;0.40;;
14096;SDS011;7125;48.106;11.544;2023-12-20T03:38:56;0.33;;;0.30;;
14096;SDS011;7125;48.106;11.544;2023-12-20T03:41:23;0.40;;;0.30;;
14096;SDS011;7125;48.106;11.544;2023-12-20T03:43:50;0.53;;;0.40;;
14096;SDS011;7125;48.106;11.544;2023-12-20T03:46:17;1.93;;;0.67;;
14096;SDS011;7125;48.106;11.544;2023-12-20T03:48:46;0.30;;;0.30;;
14096;SDS011;7125;48.106;11.544;2023-12-20T03:51:13;0.27;;;0.20;;
14096;SDS011;7125;48.106;11.544;2023-12-20T03:53:40;0.83;;;0.33;;
14096;SDS011;7125;48.106;11.544;2023-12-20T03:56:07;1.07;;;0.40;;
14096;SDS011;7125;48.106;11.544;2023-12-20T03:58:34;0.50;;;0.40;;
14096;SDS011;7125;48.106;11.544;2023-12-20T04:01:01;0.40;;;0.40;;
14096;SDS011;7125;48.106;11.544;2023-12-20T04:03:28;0.20;;;0.20;;
14096;SDS011;7125;48.106;11.544;2023-12-20T04:05:57;1.37;;;0.40;;
14096;SDS011;7125;48.106;11.544;2023-12-20T04:08:24;0.30;;;0.23;;
14096;SDS011;7125;48.106;11.544;2023-12-20T04:10:51;0.50;;;0.20;;
14096;SDS011;7125;48.106;11.544;2023-12-20T04:13:18;0.20;;;0.20;;
14096;SDS011;7125;48.106;11.544;2023-12-20T04:15:45;0.40;;;0.40;;
14096;SDS011;7125;48.106;11.544;2023-12-20T04:18:13;0.30;;;0.20;;
14096;SDS011;7125;48.106;11.544;2023-12-20T04:20:40;0.40;;;0.40;;
14096;SDS011;7125;48.106;11.544;2023-12-20T04:23:08;0.40;;;0.40;;
14096;SDS011;7125;48.106;11.544;2023-12-20T04:25:36;0.33;;;0.20;;
14096;SDS011;7125;48.106;11.544;2023-12-20T04:28:04;0.33;;;0.20;;
14096;SDS011;7125;48.106;11.544;2023-12-20T04:30:31;0.30;;;0.30;;
14096;SDS011;7125;48.106;11.544;2023-12-20T04:32:58;0.60;;;0.43;;
14096;SDS011;7125;48.106;11.544;2023-12-20T04:35:25;0.30;;;0.20;;
14096;SDS011;7125;48.106;11.544;2023-12-20T04:37:54;0.33;;;0.33;;
14096;SDS011;7125;48.106;11.544;2023-12-20T04:40:22;0.50;;;0.50;;
14096;SDS011;7125;48.106;11.544;2023-12-20T04:42:49;0.93;;;0.47;;
14096;SDS011;7125;48.106;11.544;2023-12-20T04:45:17;0.53;;;0.50;;
14096;SDS011;7125;48.106;11.544;2023-12-20T04:47:44;1.17;;;0.53;;
14096;SDS011;7125;48.106;11.544;2023-12-20T04:50:12;0.43;;;0.43;;
14096;SDS011;7125;48.106;11.544;2023-12-20T04:52:41;0.93;;;0.83;;
14096;SDS011;7125;48.106;11.544;2023-12-20T04:55:09;2.03;;;0.80;;
14096;SDS011;7125;48.106;11.544;2023-12-20T04:57:37;0.80;;;0.60;;
14096;SDS011;7125;48.106;11.544;2023-12-20T05:00:05;0.63;;;0.63;;
14096;SDS011;7125;48.106;11.544;2023-12-20T05:02:33;1.27;;;1.00;;
14096;SDS011;7125;48.106;11.544;2023-12-20T05:05:00;1.00;;;0.60;;
14096;SDS011;7125;48.106;11.544;2023-12-20T05:07:27;1.10;;;0.90;;
14096;SDS011;7125;48.106;11.544;2023-12-20T05:09:55;0.73;;;0.70;;
14096;SDS011;7125;48.106;11.544;2023-12-20T05:12:22;2.57;;;0.77;;
14096;SDS011;7125;48.106;11.544;2023-12-20T05:14:50;1.00;;;0.90;;
14096;SDS011;7125;48.106;11.544;2023-12-20T05:17:18;0.80;;;0.70;;
14096;SDS011;7125;48.106;11.544;2023-12-20T05:19:45;3.50;;;0.80;;
14096;SDS011;7125;48.106;11.544;2023-12-20T05:22:12;1.23;;;1.00;;
14096;SDS011;7125;48.106;11.544;2023-12-20T05:24:41;1.40;;;1.20;;
14096;SDS011;7125;48.106;11.544;2023-12-20T05:27:08;1.13;;;1.07;;
14096;SDS011;7125;48.106;11.544;2023-12-20T05:29:35;1.80;;;0.77;;
14096;SDS011;7125;48.106;11.544;2023-12-20T05:32:03;1.93;;;1.17;;
14096;SDS011;7125;48.106;11.544;2023-12-20T05:34:31;2.43;;;0.83;;
14096;SDS011;7125;48.106;11.544;2023-12-20T05:36:58;1.57;;;1.47;;
14096;SDS011;7125;48.106;11.544;2023-12-20T05:39:26;0.93;;;0.80;;
14096;SDS011;7125;48.106;11.544;2023-12-20T05:41:53;1.33;;;1.17;;
14096;SDS011;7125;48.106;11.544;2023-12-20T05:44:21;2.87;;;1.33;;
14096;SDS011;7125;48.106;11.544;2023-12-20T05:46:48;0.93;;;0.90;;
14096;SDS011;7125;48.106;11.544;2023-12-20T05:49:16;2.17;;;1.30;;
14096;SDS011;7125;48.106;11.544;2023-12-20T05:51:43;1.10;;;1.00;;
14096;SDS011;7125;48.106;11.544;2023-12-20T05:54:11;3.90;;;1.20;;
14096;SDS011;7125;48.106;11.544;2023-12-20T05:56:38;3.03;;;1.10;;
14096;SDS011;7125;48.106;11.544;2023-12-20T05:59:05;3.27;;;1.83;;
14096;SDS011;7125;48.106;11.544;2023-12-20T06:01:32;3.30;;;1.50;;
14096;SDS011;7125;48.106;11.544;2023-12-20T06:03:59;0.93;;;0.80;;
14096;SDS011;7125;48.106;11.544;2023-12-20T06:06:28;1.90;;;1.17;;
14096;SDS011;7125;48.106;11.544;2023-12-20T06:08:55;2.00;;;1.23;;
14096;SDS011;7125;48.106;11.544;2023-12-20T06:11:23;1.60;;;1.20;;
14096;SDS011;7125;48.106;11.544;2023-12-20T06:13:50;1.77;;;1.40;;
14096;SDS011;7125;48.106;11.544;2023-12-20T06:16:18;1.47;;;0.87;;
14096;SDS011;7125;48.106;11.544;2023-12-20T06:18:45;1.93;;;1.37;;
14096;SDS011;7125;48.106;11.544;2023-12-20T06:21:13;2.10;;;1.30;;
14096;SDS011;7125;48.106;11.544;2023-12-20T06:23:41;2.43;;;1.53;;
14096;SDS011;7125;48.106;11.544;2023-12-20T06:26:08;1.30;;;1.13;;
14096;SDS011;7125;48.106;11.544;2023-12-20T06:28:35;2.63;;;1.70;;
14096;SDS011;7125;48.106;11.544;2023-12-20T06:31:04;2.83;;;1.00;;
14096;SDS011;7125;48.106;11.544;2023-12-20T06:33:31;1.47;;;1.13;;
14096;SDS011;7125;48.106;11.544;2023-12-20T06:35:58;2.23;;;1.50;;
14096;SDS011;7125;48.106;11.544;2023-12-20T06:38:26;1.00;;;0.93;;
14096;SDS011;7125;48.106;11.544;2023-12-20T06:40:55;2.40;;;1.10;;
14096;SDS011;7125;48.106;11.544;2023-12-20T06:43:23;1.57;;;1.00;;
14096;SDS011;7125;48.106;11.544;2023-12-20T06:45:52;1.47;;;1.00;;
14096;SDS011;7125;48.106;11.544;2023-12-20T06:48:19;1.20;;;0.80;;
14096;SDS011;7125;48.106;11.544;2023-12-20T06:50:46;1.30;;;1.07;;
14096;SDS011;7125;48.106;11.544;2023-12-20T06:53:14;2.87;;;0.80;;
14096;SDS011;7125;48.106;11.544;2023-12-20T06:55:41;2.90;;;1.20;;
14096;SDS011;7125;48.106;11.544;2023-12-20T06:58:10;2.37;;;1.20;;
14096;SDS011;7125;48.106;11.544;2023-12-20T07:00:37;1.10;;;0.77;;
14096;SDS011;7125;48.106;11.544;2023-12-20T07:03:04;1.83;;;0.60;;
14096;SDS011;7125;48.106;11.544;2023-12-20T07:05:31;0.43;;;0.40;;
14096;SDS011;7125;48.106;11.544;2023-12-20T07:07:58;0.97;;;0.70;;
14096;SDS011;7125;48.106;11.544;2023-12-20T07:10:25;2.00;;;1.33;;
14096;SDS011;7125;48.106;11.544;2023-12-20T07:12:53;1.43;;;1.10;;
14096;SDS011;7125;48.106;11.544;2023-12-20T07:15:22;0.77;;;0.77;;
14096;SDS011;7125;48.106;11.544;2023-12-20T07:17:49;0.77;;;0.77;;
14096;SDS011;7125;48.106;11.544;2023-12-20T07:20:16;0.50;;;0.50;;
14096;SDS011;7125;48.106;11.544;2023-12-20T07:22:43;0.53;;;0.50;;
14096;SDS011;7125;48.106;11.544;2023-12-20T07:25:10;0.87;;;0.40;;
14096;SDS011;7125;48.106;11.544;2023-12-20T07:27:39;2.10;;;1.20;;
14096;SDS011;7125;48.106;11.544;2023-12-20T07:30:07;0.70;;;0.50;;
14096;SDS011;7125;48.106;11.544;2023-12-20T07:32:36;1.00;;;0.50;;
14096;SDS011;7125;48.106;11.544;2023-12-20T07:35:05;0.60;;;0.60;;
14096;SDS011;7125;48.106;11.544;2023-12-20T07:37:33;1.13;;;0.80;;
14096;SDS011;7125;48.106;11.544;2023-12-20T07:40:00;3.43;;;1.53;;
14096;SDS011;7125;48.106;11.544;2023-12-20T07:42:28;0.63;;;0.60;;
14096;SDS011;7125;48.106;11.544;2023-12-20T07:44:55;0.90;;;0.60;;
14096;SDS011;7125;48.106;11.544;2023-12-20T07:47:22;0.67;;;0.40;;
14096;SDS011;7125;48.106;11.544;2023-12-20T07:49:52;0.67;;;0.63;;
14096;SDS011;7125;48.106;11.544;2023-12-20T07:52:19;0.67;;;0.57;;
14096;SDS011;7125;48.106;11.544;2023-12-20T07:54:47;2.17;;;0.70;;
14096;SDS011;7125;48.106;11.544;2023-12-20T07:57:14;2.60;;;0.93;;
14096;SDS011;7125;48.106;11.544;2023-12-20T07:59:41;1.00;;;0.87;;
14096;SDS011;7125;48.106;11.544;2023-12-20T08:02:09;1.37;;;0.80;;
14096;SDS011;7125;48.106;11.544;2023-12-20T08:04:36;1.17;;;0.70;;
14096;SDS011;7125;48.106;11.544;2023-12-20T08:07:05;0.90;;;0.90;;
14096;SDS011;7125;48.106;11.544;2023-12-20T08:09:33;0.57;;;0.50;;
14096;SDS011;7125;48.106;11.544;2023-12-20T08:12:01;1.00;;;0.70;;
14096;SDS011;7125;48.106;11.544;2023-12-20T08:14:29;0.80;;;0.60;;
14096;SDS011;7125;48.106;11.544;2023-12-20T08:16:56;0.63;;;0.63;;
14096;SDS011;7125;48.106;11.544;2023-12-20T08:19:24;0.73;;;0.67;;
14096;SDS011;7125;48.106;11.544;2023-12-20T08:21:51;1.10;;;1.00;;
14096;SDS011;7125;48.106;11.544;2023-12-20T08:24:19;3.07;;;1.77;;
14096;SDS011;7125;48.106;11.544;2023-12-20T08:26:46;1.07;;;0.97;;
14096;SDS011;7125;48.106;11.544;2023-12-20T08:29:13;1.10;;;0.80;;
14096;SDS011;7125;48.106;11.544;2023-12-20T08:31:42;0.50;;;0.40;;
14096;SDS011;7125;48.106;11.544;2023-12-20T08:34:09;0.80;;;0.80;;
14096;SDS011;7125;48.106;11.544;2023-12-20T08:36:37;0.70;;;0.60;;
14096;SDS011;7125;48.106;11.544;2023-12-20T08:39:04;1.40;;;0.80;;
14096;SDS011;7125;48.106;11.544;2023-12-20T08:41:34;0.30;;;0.30;;
14096;SDS011;7125;48.106;11.544;2023-12-20T08:44:02;0.70;;;0.40;;
14096;SDS011;7125;48.106;11.544;2023-12-20T08:46:30;0.93;;;0.60;;
14096;SDS011;7125;48.106;11.544;2023-12-20T08:48:57;0.87;;;0.67;;
14096;SDS011;7125;48.106;11.544;2023-12-20T08:51:25;0.87;;;0.53;;
14096;SDS011;7125;48.106;11.544;2023-12-20T08:53:53;0.40;;;0.40;;
14096;SDS011;7125;48.106;11.544;2023-12-20T08:56:20;0.97;;;0.60;;
14096;SDS011;7125;48.106;11.544;2023-12-20T08:58:48;0.67;;;0.57;;
14096;SDS011;7125;48.106;11.544;2023-12-20T09:01:15;2.87;;;0.40;;
14096;SDS011;7125;48.106;11.544;2023-12-20T09:03:43;0.50;;;0.40;;
14096;SDS011;7125;48.106;11.544;2023-12-20T09:06:10;3.57;;;0.73;;
14096;SDS011;7125;48.106;11.544;2023-12-20T09:08:37;0.60;;;0.60;;
14096;SDS011;7125;48.106;11.544;2023-12-20T09:11:04;0.70;;;0.50;;
14096;SDS011;7125;48.106;11.544;2023-12-20T09:13:32;0.43;;;0.30;;
14096;SDS011;7125;48.106;11.544;2023-12-20T09:16:00;1.00;;;0.60;;
14096;SDS011;7125;48.106;11.544;2023-12-20T09:18:29;0.60;;;0.60;;
14096;SDS011;7125;48.106;11.544;2023-12-20T09:20:56;0.70;;;0.60;;
14096;SDS011;7125;48.106;11.544;2023-12-20T09:23:23;0.70;;;0.47;;
14096;SDS011;7125;48.106;11.544;2023-12-20T09:25:50;1.37;;;0.40;;
14096;SDS011;7125;48.106;11.544;2023-12-20T09:28:17;1.23;;;0.30;;
14096;SDS011;7125;48.106;11.544;2023-12-20T09:30:44;0.53;;;0.53;;
14096;SDS011;7125;48.106;11.544;2023-12-20T09:33:14;0.30;;;0.30;;
14096;SDS011;7125;48.106;11.544;2023-12-20T09:35:43;0.63;;;0.50;;
14096;SDS011;7125;48.106;11.544;2023-12-20T09:38:10;0.70;;;0.70;;
14096;SDS011;7125;48.106;11.544;2023-12-20T09:40:41;0.70;;;0.50;;
14096;SDS011;7125;48.106;11.544;2023-12-20T09:43:13;0.50;;;0.40;;
14096;SDS011;7125;48.106;11.544;2023-12-20T09:45:45;2.17;;;0.60;;
14096;SDS011;7125;48.106;11.544;2023-12-20T09:48:18;0.43;;;0.40;;
14096;SDS011;7125;48.106;11.544;2023-12-20T09:50:47;1.10;;;0.30;;
14096;SDS011;7125;48.106;11.544;2023-12-20T09:53:15;0.30;;;0.30;;
14096;SDS011;7125;48.106;11.544;2023-12-20T09:55:44;1.40;;;1.10;;
14096;SDS011;7125;48.106;11.544;2023-12-20T09:58:11;1.23;;;0.70;;
14096;SDS011;7125;48.106;11.544;2023-12-20T10:00:38;0.80;;;0.50;;
14096;SDS011;7125;48.106;11.544;2023-12-20T10:03:07;2.97;;;0.50;;
14096;SDS011;7125;48.106;11.544;2023-12-20T10:05:37;0.80;;;0.60;;
14096;SDS011;7125;48.106;11.544;2023-12-20T10:08:09;1.10;;;0.80;;
14096;SDS011;7125;48.106;11.544;2023-12-20T10:10:36;1.00;;;0.70;;
14096;SDS011;7125;48.106;11.544;2023-12-20T10:13:04;0.90;;;0.50;;
14096;SDS011;7125;48.106;11.544;2023-12-20T10:15:35;1.53;;;0.60;;
14096;SDS011;7125;48.106;11.544;2023-12-20T10:18:03;1.03;;;0.77;;
14096;SDS011;7125;48.106;11.544;2023-12-20T10:20:31;1.17;;;0.77;;
14096;SDS011;7125;48.106;11.544;2023-12-20T10:23:00;0.77;;;0.47;;
14096;SDS011;7125;48.106;11.544;2023-12-20T10:25:27;0.60;;;0.60;;
14096;SDS011;7125;48.106;11.544;2023-12-20T10:28:09;0.77;;;0.77;;
14096;SDS011;7125;48.106;11.544;2023-12-20T10:30:37;0.70;;;0.57;;
14096;SDS011;7125;48.106;11.544;2023-12-20T10:33:14;3.97;;;1.17;;
14096;SDS011;7125;48.106;11.544;2023-12-20T10:35:50;1.00;;;0.63;;
14096;SDS011;7125;48.106;11.544;2023-12-20T10:38:19;3.07;;;0.70;;
14096;SDS011;7125;48.106;11.544;2023-12-20T10:40:47;0.90;;;0.77;;
14096;SDS011;7125;48.106;11.544;2023-12-20T10:43:15;1.17;;;0.70;;
14096;SDS011;7125;48.106;11.544;2023-12-20T10:45:42;1.27;;;0.67;;
14096;SDS011;7125;48.106;11.544;2023-12-20T10:48:10;1.50;;;0.40;;
14096;SDS011;7125;48.106;11.544;2023-12-20T10:50:38;0.50;;;0.50;;
14096;SDS011;7125;48.106;11.544;2023-12-20T10:53:07;0.70;;;0.53;;
14096;SDS011;7125;48.106;11.544;2023-12-20T10:55:36;0.50;;;0.40;;
14096;SDS011;7125;48.106;11.544;2023-12-20T10:58:06;0.30;;;0.30;;
14096;SDS011;7125;48.106;11.544;2023-12-20T11:00:35;0.77;;;0.50;;
14096;SDS011;7125;48.106;11.544;2023-12-20T11:03:06;1.10;;;0.73;;
14096;SDS011;7125;48.106;11.544;2023-12-20T11:05:38;1.13;;;0.53;;
14096;SDS011;7125;48.106;11.544;2023-12-20T11:08:12;1.27;;;0.80;;
14096;SDS011;7125;48.106;11.544;2023-12-20T11:10:49;0.50;;;0.30;;
14096;SDS011;7125;48.106;11.544;2023-12-20T11:13:23;3.70;;;0.63;;
14096;SDS011;7125;48.106;11.544;2023-12-20T11:15:56;0.70;;;0.50;;
14096;SDS011;7125;48.106;11.544;2023-12-20T11:18:28;0.33;;;0.33;;
14096;SDS011;7125;48.106;11.544;2023-12-20T11:20:55;0.80;;;0.60;;
14096;SDS011;7125;48.106;11.544;2023-12-20T11:23:29;0.87;;;0.77;;
14096;SDS011;7125;48.106;11.544;2023-12-20T11:25:59;3.40;;;0.80;;
14096;SDS011;7125;48.106;11.544;2023-12-20T11:28:32;0.97;;;0.90;;
14096;SDS011;7125;48.106;11.544;2023-12-20T11:31:01;0.70;;;0.70;;
14096;SDS011;7125;48.106;11.544;2023-12-20T11:33:29;1.37;;;0.90;;
14096;SDS011;7125;48.106;11.544;2023-12-20T11:35:58;1.70;;;1.20;;
14096;SDS011;7125;48.106;11.544;2023-12-20T11:38:25;0.57;;;0.50;;
14096;SDS011;7125;48.106;11.544;2023-12-20T11:40:53;0.97;;;0.67;;
14096;SDS011;7125;48.106;11.544;2023-12-20T11:43:32;2.80;;;1.50;;
14096;SDS011;7125;48.106;11.544;2023-12-20T11:46:04;1.30;;;1.00;;
14096;SDS011;7125;48.106;11.544;2023-12-20T11:48:32;2.73;;;1.57;;
14096;SDS011;7125;48.106;11.544;2023-12-20T11:51:01;1.47;;;0.77;;
14096;SDS011;7125;48.106;11.544;2023-12-20T11:53:29;0.90;;;0.90;;
14096;SDS011;7125;48.106;11.544;2023-12-20T11:55:57;1.30;;;1.20;;
14096;SDS011;7125;48.106;11.544;2023-12-20T11:58:25;1.13;;;1.03;;
14096;SDS011;7125;48.106;11.544;2023-12-20T12:00:54;1.10;;;0.93;;
14096;SDS011;7125;48.106;11.544;2023-12-20T12:03:24;1.13;;;0.93;;
14096;SDS011;7125;48.106;11.544;2023-12-20T12:05:52;1.20;;;1.10;;
14096;SDS011;7125;48.106;11.544;2023-12-20T12:08:20;1.77;;;1.00;;
14096;SDS011;7125;48.106;11.544;2023-12-20T12:10:47;1.63;;;1.20;;
14096;SDS011;7125;48.106;11.544;2023-12-20T12:13:14;0.70;;;0.70;;
14096;SDS011;7125;48.106;11.544;2023-12-20T12:15:41;1.10;;;1.00;;
14096;SDS011;7125;48.106;11.544;2023-12-20T12:18:14;0.77;;;0.70;;
14096;SDS011;7125;48.106;11.544;2023-12-20T12:20:43;1.53;;;1.27;;
14096;SDS011;7125;48.106;11.544;2023-12-20T12:23:25;1.40;;;1.07;;
14096;SDS011;7125;48.106;11.544;2023-12-20T12:25:55;0.70;;;0.70;;
14096;SDS011;7125;48.106;11.544;2023-12-20T12:28:25;1.47;;;1.10;;
14096;SDS011;7125;48.106;11.544;2023-12-20T12:30:56;1.33;;;1.00;;
14096;SDS011;7125;48.106;11.544;2023-12-20T12:33:25;1.07;;;0.97;;
14096;SDS011;7125;48.106;11.544;2023-12-20T12:35:53;0.83;;;0.70;;
14096;SDS011;7125;48.106;11.544;2023-12-20T12:38:21;0.70;;;0.70;;
14096;SDS011;7125;48.106;11.544;2023-12-20T12:40:50;1.43;;;0.90;;
14096;SDS011;7125;48.106;11.544;2023-12-20T12:43:18;0.87;;;0.80;;
14096;SDS011;7125;48.106;11.544;2023-12-20T12:45:48;1.33;;;1.23;;
14096;SDS011;7125;48.106;11.544;2023-12-20T12:48:15;0.70;;;0.70;;
14096;SDS011;7125;48.106;11.544;2023-12-20T12:50:45;1.30;;;1.00;;
14096;SDS011;7125;48.106;11.544;2023-12-20T12:53:12;1.00;;;0.90;;
14096;SDS011;7125;48.106;11.544;2023-12-20T12:55:39;1.13;;;0.77;;
14096;SDS011;7125;48.106;11.544;2023-12-20T12:58:07;1.17;;;0.80;;
14096;SDS011;7125;48.106;11.544;2023-12-20T13:00:34;1.30;;;1.10;;
14096;SDS011;7125;48.106;11.544;2023-12-20T13:03:01;0.80;;;0.80;;
14096;SDS011;7125;48.106;11.544;2023-12-20T13:05:29;1.37;;;1.23;;
14096;SDS011;7125;48.106;11.544;2023-12-20T13:07:58;1.40;;;1.03;;
14096;SDS011;7125;48.106;11.544;2023-12-20T13:10:26;1.53;;;0.97;;
14096;SDS011;7125;48.106;11.544;2023-12-20T13:12:55;1.20;;;0.80;;
14096;SDS011;7125;48.106;11.544;2023-12-20T13:15:22;1.27;;;0.90;;
14096;SDS011;7125;48.106;11.544;2023-12-20T13:17:49;1.50;;;1.07;;
14096;SDS011;7125;48.106;11.544;2023-12-20T13:20:16;1.63;;;1.53;;
14096;SDS011;7125;48.106;11.544;2023-12-20T13:22:45;2.60;;;1.73;;
14096;SDS011;7125;48.106;11.544;2023-12-20T13:25:14;1.73;;;1.37;;
14096;SDS011;7125;48.106;11.544;2023-12-20T13:27:42;2.17;;;1.40;;
14096;SDS011;7125;48.106;11.544;2023-12-20T13:30:10;1.13;;;1.03;;
14096;SDS011;7125;48.106;11.544;2023-12-20T13:32:38;1.67;;;1.50;;
14096;SDS011;7125;48.106;11.544;2023-12-20T13:35:06;2.63;;;1.40;;
14096;SDS011;7125;48.106;11.544;2023-12-20T13:37:33;2.90;;;1.43;;
14096;SDS011;7125;48.106;11.544;2023-12-20T13:40:01;1.73;;;1.37;;
14096;SDS011;7125;48.106;11.544;2023-12-20T13:42:30;2.97;;;1.40;;
14096;SDS011;7125;48.106;11.544;2023-12-20T13:44:57;2.63;;;1.10;;
14096;SDS011;7125;48.106;11.544;2023-12-20T13:47:24;1.80;;;1.63;;
14096;SDS011;7125;48.106;11.544;2023-12-20T13:49:51;4.30;;;1.57;;
14096;SDS011;7125;48.106;11.544;2023-12-20T13:52:18;6.90;;;2.10;;
14096;SDS011;7125;48.106;11.544;2023-12-20T13:54:45;2.30;;;1.23;;
14096;SDS011;7125;48.106;11.544;2023-12-20T13:57:12;3.37;;;1.80;;
14096;SDS011;7125;48.106;11.544;2023-12-20T13:59:41;2.73;;;1.80;;
14096;SDS011;7125;48.106;11.544;2023-12-20T14:02:10;3.97;;;2.07;;
14096;SDS011;7125;48.106;11.544;2023-12-20T14:04:37;3.27;;;1.77;;
14096;SDS011;7125;48.106;11.544;2023-12-20T14:07:06;2.80;;;1.77;;
14096;SDS011;7125;48.106;11.544;2023-12-20T14:09:36;2.43;;;1.77;;
14096;SDS011;7125;48.106;11.544;2023-12-20T14:12:03;5.60;;;2.20;;
14096;SDS011;7125;48.106;11.544;2023-12-20T14:14:34;3.00;;;1.80;;
14096;SDS011;7125;48.106;11.544;2023-12-20T14:17:04;3.03;;;2.50;;
14096;SDS011;7125;48.106;11.544;2023-12-20T14:19:32;2.07;;;1.40;;
14096;SDS011;7125;48.106;11.544;2023-12-20T14:21:59;4.87;;;2.90;;
14096;SDS011;7125;48.106;11.544;2023-12-20T14:24:27;3.80;;;2.00;;
14096;SDS011;7125;48.106;11.544;2023-12-20T14:26:54;4.13;;;2.03;;
14096;SDS011;7125;48.106;11.544;2023-12-20T14:29:23;3.13;;;2.63;;
14096;SDS011;7125;48.106;11.544;2023-12-20T14:31:51;6.10;;;1.93;;
14096;SDS011;7125;48.106;11.544;2023-12-20T14:34:21;4.73;;;2.80;;
14096;SDS011;7125;48.106;11.544;2023-12-20T14:36:49;2.77;;;2.57;;
14096;SDS011;7125;48.106;11.544;2023-12-20T14:39:17;1.97;;;1.73;;
14096;SDS011;7125;48.106;11.544;2023-12-20T14:41:44;2.43;;;2.23;;
14096;SDS011;7125;48.106;11.544;2023-12-20T14:44:11;2.57;;;1.77;;
14096;SDS011;7125;48.106;11.544;2023-12-20T14:46:39;5.07;;;1.57;;
14096;SDS011;7125;48.106;11.544;2023-12-20T14:49:06;2.80;;;1.80;;
14096;SDS011;7125;48.106;11.544;2023-12-20T14:51:34;3.50;;;2.00;;
14096;SDS011;7125;48.106;11.544;2023-12-20T14:54:02;3.93;;;1.63;;